Time;durP1;ratioP1;P1;durP2;ratioP2;P2;SDS_P1;SDS_P2;PMS_P1;PMS_P2;Temp;Humidity;BMP_temperature;BMP_pressure;BME280_temperature;BME280_humidity;BME280_pressure;Samples;Min_cycle;Max_cycle;Signal;HPM_P1;HPM_P2
2021/12/13 00:01:11;;;;;;;303.97;57.33;;;10.00;99.90;;;;;;6174242;23;20415;-79
2021/12/13 00:03:50;;;;;;;296.50;57.33;;;10.10;99.90;;;;;;6173565;23;20470;-79
2021/12/13 00:06:28;;;;;;;313.93;61.17;;;10.10;99.90;;;;;;6173947;23;20411;-79
2021/12/13 00:09:00;;;;;;;303.50;54.13;;;10.10;99.90;;;;;;6174824;23;20418;-79
2021/12/13 00:11:33;;;;;;;300.27;58.50;;;10.20;99.90;;;;;;6174223;23;20862;-79
2021/12/13 00:14:15;;;;;;;244.37;63.67;;;10.10;99.90;;;;;;6200727;23;20437;-80
2021/12/13 00:16:49;;;;;;;254.07;59.87;;;10.20;99.90;;;;;;6211352;23;20415;-79
2021/12/13 00:19:31;;;;;;;339.03;67.07;;;10.20;99.90;;;;;;6201419;23;20399;-79
2021/12/13 00:22:19;;;;;;;280.87;66.13;;;10.20;99.90;;;;;;6174001;23;20928;-79
2021/12/13 00:24:49;;;;;;;333.63;68.27;;;10.20;99.90;;;;;;6174570;23;20445;-79
2021/12/13 00:31:25;;;;;;;;;;;;;;;;;;;;;
2021/12/13 00:34:06;;;;;;;203.70;53.87;;;10.20;99.90;;;;;;6071875;23;20482;-79
2021/12/13 00:36:47;;;;;;;343.40;67.10;;;10.20;99.90;;;;;;6055991;23;20468;-79
2021/12/13 00:39:25;;;;;;;280.87;60.67;;;10.30;99.90;;;;;;6056285;23;20418;-79
2021/12/13 00:42:00;;;;;;;334.70;59.93;;;10.30;99.90;;;;;;6056922;23;20414;-79
2021/12/13 00:44:45;;;;;;;;;;;;;;;;;;;;;
2021/12/13 00:47:19;;;;;;;300.70;55.20;;;10.30;99.90;;;;;;6097720;23;20459;-79
2021/12/13 00:49:56;;;;;;;303.00;64.00;;;10.30;99.90;;;;;;6078414;23;21003;-79
2021/12/13 00:52:28;;;;;;;224.23;55.77;;;10.30;99.90;;;;;;6102527;23;20398;-80
2021/12/13 00:54:59;;;;;;;315.13;53.53;;;10.30;99.90;;;;;;6155904;23;20489;-79
2021/12/13 00:57:49;;;;;;;253.90;53.07;;;10.30;99.90;;;;;;6197808;23;20462;-80
2021/12/13 01:39:56;;;;;;;334.93;70.40;;;10.40;99.90;;;;;;5988113;23;20937;-79
2021/12/13 01:42:31;;;;;;;254.37;60.13;;;10.40;99.90;;;;;;6140631;23;20480;-79
2021/12/13 01:45:06;;;;;;;331.57;69.20;;;10.50;99.90;;;;;;6223468;23;20457;-80
2021/12/13 01:47:41;;;;;;;328.47;61.63;;;10.50;99.90;;;;;;6196198;23;20486;-79
2021/12/13 01:50:16;;;;;;;294.50;53.50;;;10.40;99.90;;;;;;6196448;23;20414;-80
2021/12/13 01:52:46;;;;;;;242.60;57.57;;;10.50;99.90;;;;;;6195913;23;20466;-79
2021/12/13 01:55:23;;;;;;;329.13;63.83;;;10.40;99.90;;;;;;6196998;23;20439;-79
2021/12/13 01:58:19;;;;;;;235.83;67.87;;;10.50;99.90;;;;;;6195281;23;20450;-79
2021/12/13 02:03:56;;;;;;;182.80;48.23;;;10.50;99.90;;;;;;6215340;23;20438;-80
2021/12/13 02:19:39;;;;;;;287.47;62.37;;;10.50;99.90;;;;;;5830764;23;20407;-79
2021/12/13 02:22:35;;;;;;;270.83;61.80;;;10.50;99.90;;;;;;6137920;23;20418;-79
2021/12/13 02:25:11;;;;;;;327.10;74.50;;;10.50;99.90;;;;;;6135655;23;20520;-79
2021/12/13 02:27:43;;;;;;;290.80;71.83;;;10.60;99.90;;;;;;6160204;23;20396;-80
2021/12/13 02:30:17;;;;;;;399.00;72.33;;;10.50;99.90;;;;;;6169854;23;20404;-79
2021/12/13 02:32:47;;;;;;;285.23;65.37;;;10.50;99.90;;;;;;6135556;23;20415;-79
2021/12/13 02:35:17;;;;;;;230.17;53.13;;;10.60;99.90;;;;;;6159460;23;20745;-80
2021/12/13 02:37:49;;;;;;;356.83;73.93;;;10.50;99.90;;;;;;6136313;23;20807;-79
2021/12/13 02:40:21;;;;;;;303.53;71.53;;;10.50;99.90;;;;;;6154490;23;20477;-79
2021/12/13 02:42:53;;;;;;;413.40;72.10;;;10.50;99.90;;;;;;6196809;23;20419;-80
2021/12/13 02:45:26;;;;;;;346.83;68.57;;;10.60;99.90;;;;;;6196782;23;20434;-79
2021/12/13 02:48:04;;;;;;;343.43;74.30;;;10.50;99.90;;;;;;6233836;23;20414;-79
2021/12/13 02:50:44;;;;;;;260.30;59.07;;;10.60;99.90;;;;;;6206813;23;20387;-79
2021/12/13 02:53:37;;;;;;;284.00;62.70;;;10.60;99.90;;;;;;6254058;23;20411;-79
2021/12/13 02:56:15;;;;;;;266.23;64.47;;;10.60;99.90;;;;;;6244585;23;20442;-79
2021/12/13 02:58:44;;;;;;;350.57;68.80;;;10.60;99.90;;;;;;6218006;23;20422;-79
2021/12/13 03:01:18;;;;;;;257.90;66.17;;;10.60;99.90;;;;;;6217791;23;20402;-79
2021/12/13 03:03:50;;;;;;;441.13;71.60;;;10.60;99.90;;;;;;6244666;23;20410;-79
2021/12/13 03:06:28;;;;;;;318.23;63.17;;;10.60;99.90;;;;;;6217851;23;20410;-79
2021/12/13 03:09:04;;;;;;;364.67;78.17;;;10.60;99.90;;;;;;6238750;23;20466;-79
2021/12/13 03:11:34;;;;;;;355.13;73.77;;;10.60;99.90;;;;;;6249097;23;20371;-79
2021/12/13 03:14:08;;;;;;;350.13;65.17;;;10.60;99.90;;;;;;6212130;23;20898;-79
2021/12/13 03:16:45;;;;;;;317.83;66.70;;;10.60;99.90;;;;;;6206061;23;20457;-79
2021/12/13 03:19:23;;;;;;;256.73;60.67;;;10.60;99.90;;;;;;6199536;23;20415;-79
2021/12/13 03:22:17;;;;;;;253.77;62.07;;;10.60;99.90;;;;;;6198119;23;20418;-79
2021/12/13 03:25:20;;;;;;;335.37;66.50;;;10.60;99.90;;;;;;6197796;23;20442;-79
2021/12/13 03:28:11;;;;;;;299.83;68.90;;;10.60;99.90;;;;;;6195607;23;20419;-79
2021/12/13 03:30:55;;;;;;;139.33;48.80;;;10.60;99.90;;;;;;6195580;23;20469;-79
2021/12/13 03:33:33;;;;;;;271.97;60.83;;;10.60;99.90;;;;;;6195621;23;20438;-79
2021/12/13 03:41:08;;;;;;;;;;;;;;;;;;;;;
2021/12/13 03:43:43;;;;;;;301.90;71.43;;;10.60;99.90;;;;;;6116348;23;20844;-80
2021/12/13 03:46:15;;;;;;;279.97;62.40;;;10.70;99.90;;;;;;6195021;23;20426;-79
2021/12/13 03:48:46;;;;;;;351.97;76.77;;;10.60;99.90;;;;;;6222281;23;20450;-79
2021/12/13 03:51:23;;;;;;;289.37;63.77;;;10.60;99.90;;;;;;6222854;23;20470;-79
2021/12/13 03:53:54;;;;;;;363.23;81.17;;;10.70;99.90;;;;;;6222361;23;20430;-79
2021/12/13 03:56:28;;;;;;;241.90;70.87;;;10.60;99.90;;;;;;6195229;23;20437;-79
2021/12/13 03:59:05;;;;;;;257.40;58.90;;;10.70;99.90;;;;;;6221300;23;20446;-79
2021/12/13 04:01:40;;;;;;;465.93;75.70;;;10.60;99.90;;;;;;6195827;23;20414;-79
2021/12/13 04:04:14;;;;;;;288.27;69.37;;;10.70;99.90;;;;;;6194903;23;20763;-79
2021/12/13 04:06:57;;;;;;;;;;;;;;;;;;;;;
2021/12/13 04:20:51;;;;;;;362.17;69.57;;;10.70;99.90;;;;;;5882273;24;20421;-79
2021/12/13 04:23:27;;;;;;;217.57;63.33;;;10.70;99.90;;;;;;5931375;24;20427;-79
2021/12/13 04:25:56;;;;;;;363.97;63.30;;;10.70;99.90;;;;;;6064888;23;20416;-79
2021/12/13 04:28:35;;;;;;;336.87;71.20;;;10.70;99.90;;;;;;6106978;23;20405;-79
2021/12/13 04:31:08;;;;;;;305.07;71.17;;;10.70;99.90;;;;;;6140519;23;20405;-79
2021/12/13 04:33:39;;;;;;;254.10;61.30;;;10.70;99.90;;;;;;6131721;23;20479;-80
2021/12/13 04:36:12;;;;;;;263.17;60.93;;;10.70;99.90;;;;;;6130832;23;20417;-79
2021/12/13 04:38:52;;;;;;;283.23;69.67;;;10.70;99.90;;;;;;6130800;23;20434;-79
2021/12/13 04:48:02;;;;;;;342.87;80.90;;;10.70;99.90;;;;;;5811665;24;20417;-79
2021/12/13 04:50:34;;;;;;;368.00;71.03;;;10.70;99.90;;;;;;6097900;23;20413;-79
2021/12/13 04:53:18;;;;;;;274.83;58.23;;;10.70;99.90;;;;;;6131614;23;20413;-80
2021/12/13 04:55:52;;;;;;;378.93;72.43;;;10.70;99.90;;;;;;6107437;23;20409;-80
2021/12/13 06:12:30;;;;;;;235.23;48.47;;;11.00;99.90;;;;;;6119290;23;20413;-80
2021/12/13 06:15:20;;;;;;;196.63;49.00;;;10.90;99.90;;;;;;6107968;23;21056;-80
2021/12/13 06:17:54;;;;;;;287.60;57.17;;;10.90;99.90;;;;;;6107724;23;20739;-80
2021/12/13 06:20:26;;;;;;;171.20;45.43;;;10.90;99.90;;;;;;6107449;23;20406;-80
2021/12/13 06:23:08;;;;;;;137.63;45.03;;;10.80;99.90;;;;;;6108121;23;20489;-80
2021/12/13 06:25:37;;;;;;;227.30;48.83;;;10.80;99.90;;;;;;6118888;23;20406;-80
2021/12/13 06:28:16;;;;;;;240.17;46.43;;;10.80;99.90;;;;;;6107581;23;20425;-80
2021/12/13 06:30:54;;;;;;;296.90;53.77;;;10.80;99.90;;;;;;6107443;23;20457;-80
2021/12/13 06:33:23;;;;;;;200.93;45.53;;;10.80;99.90;;;;;;6118165;23;20512;-78
2021/12/13 06:35:53;;;;;;;205.30;56.60;;;10.70;99.90;;;;;;6104044;23;20456;-78
2021/12/13 06:38:40;;;;;;;210.40;49.20;;;10.80;99.90;;;;;;6103944;23;20450;-77
2021/12/13 06:41:15;;;;;;;128.87;44.40;;;10.80;99.90;;;;;;6104106;23;20414;-77
2021/12/13 06:43:50;;;;;;;318.30;56.87;;;10.80;99.90;;;;;;6103689;23;20469;-77
2021/12/13 06:46:33;;;;;;;213.70;46.33;;;10.70;99.90;;;;;;6103949;23;20417;-77
2021/12/13 06:49:15;;;;;;;208.80;53.50;;;10.70;99.90;;;;;;6103984;23;20731;-78
2021/12/13 06:51:51;;;;;;;243.97;46.67;;;10.70;99.90;;;;;;6103720;23;20441;-77
2021/12/13 06:54:26;;;;;;;324.20;54.43;;;10.70;99.90;;;;;;6105051;23;20432;-78
2021/12/13 06:56:59;;;;;;;172.17;44.83;;;10.70;99.90;;;;;;6105447;23;20476;-77
2021/12/13 06:59:31;;;;;;;185.80;45.13;;;10.70;99.90;;;;;;6113836;23;20441;-78
2021/12/13 07:02:13;;;;;;;188.07;46.57;;;10.70;99.90;;;;;;6101560;23;20406;-77
2021/12/13 07:05:06;;;;;;;234.97;46.23;;;10.70;99.90;;;;;;6097387;23;20917;-78
2021/12/13 07:07:39;;;;;;;218.77;55.63;;;10.70;99.90;;;;;;6093179;23;20477;-77
2021/12/13 07:10:23;;;;;;;184.83;43.87;;;10.60;99.90;;;;;;6101744;23;20449;-77
2021/12/13 07:12:58;;;;;;;243.10;54.60;;;10.60;99.90;;;;;;6103205;23;20508;-77
2021/12/13 07:15:38;;;;;;;128.67;47.33;;;10.60;99.90;;;;;;6102302;23;20416;-77
2021/12/13 07:18:12;;;;;;;176.20;47.50;;;10.60;99.90;;;;;;6102230;23;20409;-78
2021/12/13 07:20:47;;;;;;;271.07;51.53;;;10.60;99.90;;;;;;6102184;23;20881;-78
2021/12/13 07:23:16;;;;;;;257.60;57.43;;;10.60;99.90;;;;;;6102501;23;20501;-77
2021/12/13 07:25:46;;;;;;;310.47;60.43;;;10.60;99.90;;;;;;6137926;23;20401;-77
2021/12/13 07:28:32;;;;;;;277.97;51.87;;;10.60;99.90;;;;;;6101904;23;20421;-78
2021/12/13 07:31:05;;;;;;;210.37;56.07;;;10.60;99.90;;;;;;6102016;23;20437;-77
2021/12/13 07:33:43;;;;;;;262.10;53.83;;;10.50;99.90;;;;;;6138190;23;20424;-78
2021/12/13 07:40:28;;;;;;;304.90;119.43;;;10.50;99.90;;;;;;5920986;24;20895;-78
2021/12/13 07:43:13;;;;;;;324.40;148.90;;;10.50;99.90;;;;;;5985889;23;20428;-77
2021/12/13 07:46:29;;;;;;;353.53;169.80;;;10.50;99.90;;;;;;5964692;24;20476;-77
2021/12/13 07:49:02;;;;;;;392.97;165.67;;;10.50;99.90;;;;;;6020809;23;20452;-77
2021/12/13 07:51:34;;;;;;;426.50;166.40;;;10.50;99.90;;;;;;5989569;23;21024;-77
2021/12/13 07:54:08;;;;;;;357.50;162.03;;;10.50;99.90;;;;;;6068222;23;20520;-77
2021/12/13 07:56:46;;;;;;;332.50;141.33;;;10.50;99.90;;;;;;6109219;23;20464;-77
2021/12/13 07:59:19;;;;;;;307.07;138.40;;;10.50;99.90;;;;;;6127933;23;20441;-78
2021/12/13 08:01:50;;;;;;;271.33;126.97;;;10.40;99.90;;;;;;6120896;23;20410;-77
2021/12/13 08:04:22;;;;;;;249.87;100.83;;;10.40;99.90;;;;;;6129972;23;20439;-78
2021/12/13 08:06:53;;;;;;;239.90;87.93;;;10.40;99.90;;;;;;6129626;23;20429;-78
2021/12/13 08:09:27;;;;;;;223.40;69.53;;;10.40;99.90;;;;;;6130502;23;20390;-78
2021/12/13 08:11:59;;;;;;;179.50;63.17;;;10.40;99.90;;;;;;6130444;23;20462;-78
2021/12/13 08:14:31;;;;;;;344.30;80.20;;;10.50;99.90;;;;;;6129040;23;20437;-77
2021/12/13 08:17:11;;;;;;;195.30;62.57;;;10.40;99.90;;;;;;6129228;23;20413;-77
2021/12/13 08:19:40;;;;;;;222.80;49.93;;;10.40;99.90;;;;;;6128267;23;20441;-77
2021/12/13 08:22:13;;;;;;;161.17;55.67;;;10.40;99.90;;;;;;6150446;23;20386;-77
2021/12/13 08:24:44;;;;;;;209.63;51.90;;;10.40;99.90;;;;;;6112824;23;20468;-77
2021/12/13 08:27:17;;;;;;;253.83;50.03;;;10.40;99.90;;;;;;6143258;23;20409;-77
2021/12/13 08:29:46;;;;;;;289.17;53.97;;;10.40;99.90;;;;;;6106337;23;20440;-77
2021/12/13 08:32:21;;;;;;;200.53;46.10;;;10.40;99.90;;;;;;6139497;23;20457;-78
2021/12/13 08:34:55;;;;;;;210.50;42.07;;;10.40;99.90;;;;;;6103552;23;20440;-78
2021/12/13 08:37:26;;;;;;;239.80;48.50;;;10.40;99.90;;;;;;6102887;23;20405;-77
2021/12/13 08:39:58;;;;;;;299.17;48.67;;;10.40;99.90;;;;;;6102435;23;20455;-78
2021/12/13 08:42:31;;;;;;;281.40;50.30;;;10.40;99.90;;;;;;6102474;23;20413;-77
2021/12/13 08:45:08;;;;;;;232.27;46.47;;;10.40;99.90;;;;;;6101305;23;20545;-77
2021/12/13 08:47:41;;;;;;;286.97;51.47;;;10.40;99.90;;;;;;6137336;23;20389;-77
2021/12/13 08:50:16;;;;;;;145.93;40.73;;;10.40;99.90;;;;;;6102568;23;20418;-78
2021/12/13 08:52:49;;;;;;;186.47;54.33;;;10.40;99.90;;;;;;6102214;23;20433;-77
2021/12/13 08:55:25;;;;;;;186.87;41.07;;;10.40;99.90;;;;;;6101294;23;20437;-78
2021/12/13 08:58:00;;;;;;;232.90;58.23;;;10.40;99.90;;;;;;6101106;23;20451;-78
2021/12/13 09:00:40;;;;;;;184.27;46.27;;;10.40;99.90;;;;;;6101120;23;20451;-77
2021/12/13 09:03:17;;;;;;;264.83;52.93;;;10.30;99.90;;;;;;6100813;23;20417;-78
2021/12/13 09:05:59;;;;;;;215.97;49.30;;;10.40;99.90;;;;;;6100941;23;20409;-77
2021/12/13 09:08:31;;;;;;;301.07;55.40;;;10.30;99.90;;;;;;6101171;23;20504;-78
2021/12/13 09:11:05;;;;;;;309.63;56.67;;;10.30;99.90;;;;;;6100945;23;20449;-78
2021/12/13 09:13:39;;;;;;;238.53;48.93;;;10.30;99.90;;;;;;6100957;23;20444;-78
2021/12/13 09:16:08;;;;;;;166.33;41.23;;;10.30;99.90;;;;;;6101776;23;20417;-78
2021/12/13 09:18:37;;;;;;;263.47;52.27;;;10.30;99.90;;;;;;6101276;23;20455;-78
2021/12/13 09:21:07;;;;;;;213.67;48.50;;;10.30;99.90;;;;;;6101241;23;20421;-78
2021/12/13 09:23:43;;;;;;;212.87;47.23;;;10.30;99.90;;;;;;6101330;23;20468;-78
2021/12/13 09:26:15;;;;;;;167.43;41.23;;;10.30;99.90;;;;;;6101352;23;20455;-78
2021/12/13 09:28:50;;;;;;;192.97;43.80;;;10.30;99.90;;;;;;6101236;23;20748;-78
2021/12/13 09:31:23;;;;;;;291.13;48.20;;;10.30;99.90;;;;;;6137256;23;20440;-78
2021/12/13 09:33:54;;;;;;;181.40;46.57;;;10.30;99.90;;;;;;6101260;23;20754;-78
2021/12/13 09:36:26;;;;;;;215.80;41.63;;;10.30;99.90;;;;;;6101290;23;20429;-78
2021/12/13 09:39:04;;;;;;;174.63;36.90;;;10.30;99.90;;;;;;6101191;23;20409;-78
2021/12/13 09:41:40;;;;;;;150.83;36.77;;;10.30;99.90;;;;;;6102530;23;20698;-78
2021/12/13 09:44:24;;;;;;;269.40;51.47;;;10.30;99.90;;;;;;6100633;23;20444;-78
2021/12/13 09:47:02;;;;;;;185.97;43.50;;;10.30;99.90;;;;;;6100706;23;20409;-78
2021/12/13 09:49:37;;;;;;;243.10;48.87;;;10.30;99.90;;;;;;6136954;23;20384;-78
2021/12/13 09:52:10;;;;;;;219.73;51.50;;;10.30;99.90;;;;;;6126543;23;21014;-78
2021/12/13 09:54:44;;;;;;;252.00;51.57;;;10.30;99.90;;;;;;6100723;23;20444;-78
2021/12/13 09:57:24;;;;;;;290.03;50.87;;;10.30;99.90;;;;;;6101121;23;20417;-77
2021/12/13 10:00:09;;;;;;;217.27;52.87;;;10.30;99.90;;;;;;6101310;23;20429;-78
2021/12/13 10:02:45;;;;;;;208.00;50.83;;;10.30;99.90;;;;;;6102158;23;20475;-78
2021/12/13 10:05:19;;;;;;;169.53;44.63;;;10.30;99.90;;;;;;6100865;23;20472;-78
2021/12/13 10:07:54;;;;;;;178.10;44.53;;;10.30;99.90;;;;;;6101329;23;20417;-78
2021/12/13 10:10:30;;;;;;;188.00;43.23;;;10.30;99.90;;;;;;6100968;23;20424;-78
2021/12/13 10:13:03;;;;;;;271.17;58.03;;;10.30;99.90;;;;;;6100979;23;20433;-78
2021/12/13 10:15:38;;;;;;;310.80;55.33;;;10.30;99.90;;;;;;6101169;23;20468;-78
2021/12/13 10:18:11;;;;;;;269.40;57.90;;;10.30;99.90;;;;;;6101054;23;20455;-78
2021/12/13 10:20:45;;;;;;;164.17;47.50;;;10.30;99.90;;;;;;6125402;23;20406;-78
2021/12/13 10:23:18;;;;;;;232.57;56.57;;;10.30;99.90;;;;;;6100736;23;20480;-78
2021/12/13 10:25:51;;;;;;;278.50;57.03;;;10.30;99.90;;;;;;6101716;23;20405;-78
2021/12/13 10:28:23;;;;;;;367.80;74.53;;;10.30;99.90;;;;;;6101032;23;20504;-78
2021/12/13 10:31:00;;;;;;;298.23;71.93;;;10.30;99.90;;;;;;6100725;23;20510;-78
2021/12/13 10:33:32;;;;;;;119.13;42.90;;;10.30;99.90;;;;;;6100571;23;21009;-78
2021/12/13 10:36:02;;;;;;;220.23;49.33;;;10.30;99.90;;;;;;6100602;23;20465;-78
2021/12/13 10:38:38;;;;;;;216.53;50.33;;;10.30;99.90;;;;;;6102535;23;20431;-78
2021/12/13 10:41:09;;;;;;;292.27;59.70;;;10.30;99.90;;;;;;6102665;23;20416;-78
2021/12/13 10:43:41;;;;;;;145.43;46.73;;;10.30;99.90;;;;;;6102514;23;20497;-78
2021/12/13 10:46:14;;;;;;;164.80;50.67;;;10.30;99.90;;;;;;6102487;23;20409;-78
2021/12/13 10:48:49;;;;;;;270.00;56.20;;;10.30;99.90;;;;;;6102304;23;20472;-78
2021/12/13 10:51:20;;;;;;;285.43;60.87;;;10.30;99.90;;;;;;6128696;23;20465;-78
2021/12/13 10:53:51;;;;;;;219.43;55.50;;;10.30;99.90;;;;;;6073333;23;20509;-78
2021/12/13 10:56:23;;;;;;;217.77;53.23;;;10.30;99.90;;;;;;6073530;23;20937;-78
2021/12/13 10:58:56;;;;;;;127.07;41.00;;;10.30;99.90;;;;;;6099717;23;20768;-78
2021/12/13 11:01:31;;;;;;;272.90;65.20;;;10.30;99.90;;;;;;6074079;23;20446;-78
2021/12/13 11:04:06;;;;;;;321.03;65.90;;;10.30;99.90;;;;;;6074067;23;20441;-78
2021/12/13 11:06:36;;;;;;;254.97;57.03;;;10.30;99.90;;;;;;6073606;23;20417;-78
2021/12/13 11:09:05;;;;;;;287.97;66.30;;;10.30;99.90;;;;;;6073339;23;20450;-78
2021/12/13 11:11:38;;;;;;;268.50;57.60;;;10.30;99.90;;;;;;6073186;23;20430;-78
2021/12/13 11:14:09;;;;;;;358.83;64.30;;;10.30;99.90;;;;;;6073321;23;20442;-78
2021/12/13 11:16:43;;;;;;;322.07;58.53;;;10.30;99.90;;;;;;6109342;23;20401;-78
2021/12/13 11:19:14;;;;;;;219.63;50.57;;;10.30;99.90;;;;;;6073293;23;20417;-78
2021/12/13 11:21:47;;;;;;;157.97;47.33;;;10.30;99.90;;;;;;6073190;23;20491;-78
2021/12/13 11:24:19;;;;;;;307.07;59.87;;;10.40;99.90;;;;;;6073030;23;20448;-78
2021/12/13 11:26:50;;;;;;;195.20;55.17;;;10.40;99.90;;;;;;6073430;23;20962;-78
2021/12/13 11:29:21;;;;;;;285.50;60.87;;;10.40;99.90;;;;;;6073530;23;20925;-78
2021/12/13 11:32:29;;;;;;;227.93;57.67;;;10.30;99.90;;;;;;6073434;23;20864;-78
2021/12/13 11:35:45;;;;;;;193.33;59.67;;;10.40;99.90;;;;;;6098929;23;20434;-78
2021/12/13 11:38:30;;;;;;;250.47;60.93;;;10.30;99.90;;;;;;6070195;23;20759;-78
2021/12/13 11:41:29;;;;;;;201.43;54.73;;;10.30;99.90;;;;;;6073061;23;20410;-78
2021/12/13 11:44:09;;;;;;;346.73;76.53;;;10.40;99.90;;;;;;6073027;23;20937;-78
2021/12/13 11:47:12;;;;;;;335.23;70.67;;;10.30;99.90;;;;;;6073084;23;20418;-78
2021/12/13 11:50:03;;;;;;;288.87;70.03;;;10.30;99.90;;;;;;6070806;23;20422;-78
2021/12/13 11:53:15;;;;;;;301.97;60.87;;;10.30;99.90;;;;;;6073220;23;20434;-78
2021/12/13 11:56:15;;;;;;;234.00;52.03;;;10.30;99.90;;;;;;6073173;23;20415;-78
2021/12/13 11:59:24;;;;;;;375.97;71.53;;;10.30;99.90;;;;;;6072955;23;20434;-78
2021/12/13 12:02:02;;;;;;;236.83;55.03;;;10.30;99.90;;;;;;6079257;23;20723;-78
2021/12/13 12:05:38;;;;;;;259.37;66.67;;;10.30;99.90;;;;;;6108312;23;20422;-78
2021/12/13 12:08:32;;;;;;;245.57;53.37;;;10.30;99.90;;;;;;6098029;23;20885;-78
2021/12/13 12:11:27;;;;;;;290.17;64.97;;;10.30;99.90;;;;;;6100070;23;20441;-78
2021/12/13 12:14:05;;;;;;;166.53;56.17;;;10.30;99.90;;;;;;6096393;23;20458;-78
2021/12/13 12:16:39;;;;;;;220.37;66.97;;;10.30;99.90;;;;;;6072743;23;20438;-78
2021/12/13 12:19:14;;;;;;;315.03;65.37;;;10.30;99.90;;;;;;6072654;23;20414;-79
2021/12/13 12:21:50;;;;;;;201.07;51.23;;;10.30;99.90;;;;;;6072699;23;20450;-78
2021/12/13 12:24:23;;;;;;;278.63;66.17;;;10.30;99.90;;;;;;6107904;23;20453;-78
2021/12/13 12:26:55;;;;;;;269.50;59.10;;;10.30;99.90;;;;;;6072573;23;20449;-78
2021/12/13 12:29:27;;;;;;;255.03;58.17;;;10.30;99.90;;;;;;6072411;23;20433;-78
2021/12/13 12:32:02;;;;;;;286.63;60.60;;;10.30;99.90;;;;;;6072626;23;20410;-78
2021/12/13 12:34:35;;;;;;;191.37;55.73;;;10.30;99.90;;;;;;6107560;23;20448;-78
2021/12/13 12:38:06;;;;;;;131.13;43.70;;;10.30;99.90;;;;;;6107639;23;20383;-78
2021/12/13 12:40:38;;;;;;;303.77;62.77;;;10.30;99.90;;;;;;6073132;23;20481;-78
2021/12/13 12:43:09;;;;;;;122.80;54.87;;;10.30;99.90;;;;;;6108264;23;20835;-78
2021/12/13 12:45:43;;;;;;;327.77;68.00;;;10.30;99.90;;;;;;6072522;23;20886;-78
2021/12/13 12:48:22;;;;;;;299.03;69.17;;;10.30;99.90;;;;;;6072312;23;20417;-78
2021/12/13 12:50:57;;;;;;;314.83;70.93;;;10.30;99.90;;;;;;6072243;23;20414;-78
2021/12/13 12:53:40;;;;;;;290.57;58.77;;;10.30;99.90;;;;;;6071937;23;20504;-78
2021/12/13 12:56:16;;;;;;;283.20;56.70;;;10.30;99.90;;;;;;6072411;23;20409;-78
2021/12/13 12:58:52;;;;;;;277.80;56.80;;;10.30;99.90;;;;;;6072849;23;20442;-78
2021/12/13 13:01:25;;;;;;;202.50;47.17;;;10.30;99.90;;;;;;6108766;23;20787;-78
2021/12/13 13:04:05;;;;;;;293.80;59.70;;;10.30;99.90;;;;;;6074852;23;20449;-78
2021/12/13 13:06:33;;;;;;;336.37;66.67;;;10.30;99.90;;;;;;6098434;23;20409;-78
2021/12/13 13:09:13;;;;;;;256.97;49.10;;;10.30;99.90;;;;;;6099862;23;20402;-78
2021/12/13 13:11:46;;;;;;;161.50;40.20;;;10.30;99.90;;;;;;6100291;23;20414;-78
2021/12/13 13:14:22;;;;;;;200.93;52.67;;;10.30;99.90;;;;;;6096531;23;20548;-79
2021/12/13 13:16:54;;;;;;;288.33;66.03;;;10.30;99.90;;;;;;6096767;23;20394;-77
2021/12/13 13:19:29;;;;;;;391.50;72.10;;;10.30;99.90;;;;;;6099821;23;20390;-78
2021/12/13 13:22:02;;;;;;;281.17;71.73;;;10.30;99.90;;;;;;6133709;23;20382;-77
2021/12/13 13:24:53;;;;;;;215.17;60.77;;;10.30;99.90;;;;;;6134179;23;20406;-78
2021/12/13 13:27:25;;;;;;;332.17;72.43;;;10.30;99.90;;;;;;6099181;23;20410;-78
2021/12/13 13:29:54;;;;;;;364.03;64.73;;;10.30;99.90;;;;;;6094840;23;20410;-78
2021/12/13 13:32:24;;;;;;;234.63;60.33;;;10.30;99.90;;;;;;6075715;23;20422;-79
2021/12/13 13:34:56;;;;;;;409.77;79.33;;;10.30;99.90;;;;;;6075306;23;20488;-79
2021/12/13 13:37:28;;;;;;;391.30;82.07;;;10.30;99.90;;;;;;6075460;23;20525;-78
2021/12/13 13:40:03;;;;;;;191.47;49.87;;;10.30;99.90;;;;;;6101914;23;20398;-79
2021/12/13 13:42:38;;;;;;;416.80;61.90;;;10.30;99.90;;;;;;6073866;23;20792;-79
2021/12/13 13:45:16;;;;;;;399.40;73.97;;;10.30;99.90;;;;;;6073792;23;20433;-79
2021/12/13 13:47:48;;;;;;;450.43;88.57;;;10.30;99.90;;;;;;6073725;23;20488;-78
2021/12/13 13:50:22;;;;;;;344.17;72.33;;;10.30;99.90;;;;;;6074386;23;20446;-79
2021/12/13 13:52:53;;;;;;;290.00;50.37;;;10.30;99.90;;;;;;6073682;23;20461;-79
2021/12/13 13:55:28;;;;;;;208.13;52.00;;;10.30;99.90;;;;;;6073625;23;20580;-79
2021/12/13 13:58:05;;;;;;;288.80;63.20;;;10.30;99.90;;;;;;6099816;23;20409;-78
2021/12/13 14:00:38;;;;;;;465.43;73.20;;;10.30;99.90;;;;;;6073988;23;20428;-79
2021/12/13 14:03:08;;;;;;;520.30;76.60;;;10.30;99.90;;;;;;6112397;23;20730;-80
2021/12/13 14:05:42;;;;;;;368.60;74.27;;;10.30;99.90;;;;;;6079165;23;20410;-80
2021/12/13 14:08:19;;;;;;;214.00;46.63;;;10.30;99.90;;;;;;6079012;23;20409;-80
2021/12/13 14:10:48;;;;;;;375.20;53.37;;;10.30;99.90;;;;;;6079155;23;20451;-80
2021/12/13 14:13:22;;;;;;;372.10;68.50;;;10.20;99.90;;;;;;6116861;23;20489;-80
2021/12/13 14:15:52;;;;;;;326.73;70.03;;;10.20;99.90;;;;;;6081422;23;20414;-80
2021/12/13 14:18:23;;;;;;;286.80;55.43;;;10.20;99.90;;;;;;6081825;23;20422;-79
2021/12/13 14:20:55;;;;;;;428.43;71.87;;;10.20;99.90;;;;;;6074862;23;20473;-78
2021/12/13 14:23:27;;;;;;;329.70;65.47;;;10.20;99.90;;;;;;6109846;23;20446;-78
2021/12/13 14:25:59;;;;;;;313.47;49.47;;;10.20;99.90;;;;;;6110418;23;20386;-79
2021/12/13 14:28:35;;;;;;;225.63;56.23;;;10.20;99.90;;;;;;6101625;23;20418;-78
2021/12/13 14:31:10;;;;;;;323.30;48.83;;;10.20;99.90;;;;;;6110073;23;20390;-79
2021/12/13 14:33:41;;;;;;;242.27;37.10;;;10.20;99.90;;;;;;6074638;23;20532;-79
2021/12/13 14:36:19;;;;;;;396.37;65.13;;;10.20;99.90;;;;;;6074670;23;20414;-79
2021/12/13 14:38:52;;;;;;;283.30;54.20;;;10.20;99.90;;;;;;6073082;23;20417;-79
2021/12/13 14:41:23;;;;;;;318.87;64.37;;;10.20;99.90;;;;;;6110003;23;20386;-78
2021/12/13 14:43:59;;;;;;;340.10;60.27;;;10.10;99.90;;;;;;6074036;23;20438;-79
2021/12/13 14:46:29;;;;;;;280.23;64.10;;;10.10;99.90;;;;;;6073974;23;20416;-78
2021/12/13 14:49:06;;;;;;;302.30;53.67;;;10.20;99.90;;;;;;6073836;23;20426;-78
2021/12/13 14:51:40;;;;;;;270.90;58.23;;;10.10;99.90;;;;;;6074961;23;20874;-79
2021/12/13 14:54:08;;;;;;;357.60;60.93;;;10.20;99.90;;;;;;6074972;23;20532;-79
2021/12/13 14:56:38;;;;;;;255.73;60.37;;;10.10;99.90;;;;;;6074104;23;20458;-78
2021/12/13 14:59:12;;;;;;;164.93;39.20;;;10.10;99.90;;;;;;6074104;23;20450;-78
2021/12/13 15:01:43;;;;;;;264.33;58.20;;;10.10;99.90;;;;;;6100053;23;20403;-79
2021/12/13 15:04:16;;;;;;;331.30;61.07;;;10.10;99.90;;;;;;6073806;23;20922;-79
2021/12/13 15:06:47;;;;;;;208.40;39.67;;;10.10;99.90;;;;;;6074736;23;20492;-78
2021/12/13 15:09:19;;;;;;;468.40;62.37;;;10.10;99.90;;;;;;6073832;23;20530;-78
2021/12/13 15:11:51;;;;;;;320.33;58.97;;;10.10;99.90;;;;;;6073899;23;20422;-78
2021/12/13 15:14:27;;;;;;;509.20;77.60;;;10.10;99.90;;;;;;6074687;23;20453;-78
2021/12/13 15:16:57;;;;;;;217.07;37.37;;;10.10;99.90;;;;;;6074688;23;20414;-79
2021/12/13 15:19:30;;;;;;;275.60;55.07;;;10.10;99.90;;;;;;6109629;23;20414;-79
2021/12/13 15:22:01;;;;;;;235.70;60.67;;;10.10;99.90;;;;;;6074475;23;20449;-78
2021/12/13 15:24:37;;;;;;;341.50;58.60;;;10.00;99.90;;;;;;6073872;23;20746;-78
2021/12/13 15:27:10;;;;;;;217.57;43.33;;;10.00;99.90;;;;;;6073923;23;20438;-78
2021/12/13 15:30:00;;;;;;;186.73;40.53;;;10.00;99.90;;;;;;6074957;23;20422;-78
2021/12/13 15:32:31;;;;;;;259.13;63.27;;;10.00;99.90;;;;;;6074502;23;20410;-78
2021/12/13 15:35:08;;;;;;;173.30;56.20;;;10.00;99.90;;;;;;6073141;23;20482;-79
2021/12/13 15:37:39;;;;;;;255.23;53.90;;;10.00;99.90;;;;;;6074119;23;20415;-79
2021/12/13 15:40:15;;;;;;;409.63;77.10;;;10.00;99.90;;;;;;6074099;23;20422;-78
2021/12/13 15:42:48;;;;;;;277.17;46.30;;;10.00;99.90;;;;;;6073922;23;20870;-78
2021/12/13 15:45:23;;;;;;;258.63;65.20;;;10.00;99.90;;;;;;6073738;23;20443;-79
2021/12/13 15:50:52;;;;;;;288.67;48.60;;;9.90;99.90;;;;;;6073711;23;20422;-78